North Windham, CT (06256)

5:16 PM EDT on July 27, 2016 (GMT -0400)
Charles H. Barrows STEM Academy | | Change Station

Elev 361 ft 41.72 °N, 72.18 °W | Updated 1 minute ago

Partly Cloudy
Partly Cloudy
88.9 °F
Feels Like 87 °F
N
7.0
Wind Variable Wind from West

Today
High -- | Low -- °F
--% Chance of Precip.
Yesterday
High -- | Low -- °F
Precip. -- in
Pressure 29.86 in
Visibility 10.0 miles
Clouds Few 8000 ft
Heat Index 87 °F
Dew Point 55 °F
Humidity 32%
Rainfall 0.00 in
Snow Depth Not available.
5:38 AM 8:11 PM
Last Quarter, 39% visible
METAR KHFD 272053Z VRB05KT 10SM FEW080 34/14 A2986 RMK AO2 SLP110 T03440139 58013
Pressure 29.86 in
Visibility 10.0 miles
Clouds Few 8000 ft
Heat Index 87 °F
Dew Point 55 °F
Humidity 32%
Rainfall 0.00 in
Snow Depth Not available.
5:38 AM 8:11 PM
Last Quarter, 39% visible
METAR KHFD 272053Z VRB05KT 10SM FEW080 34/14 A2986 RMK AO2 SLP110 T03440139 58013

10-Day Weather Forecast

Almanac

Astronomy

Jul. 27, 2016 Rise Set
Actual Time
Civil Twilight
Nautical Twilight
Astronomical Twilight
Moon
Length of Visible Light
Length of Day
Tomorrow will be .
, % of the Moon is Illuminated

Today's Extremes

State Highs State Lows

Community

WunderPhotos

Upload Photos

1,927,937 photos uploaded!

WunderBlog® & News

Nearby

Air Quality

  Air Quality AQ Index Pollutant
Not available.

Snow Depth

Station Depth Elevation

Earthquake Activity

City Distance Mag. Time & Date
Minimum magnitude displayed is 2.5.

Coastal Water Temperatures

Place Temperature

Stations

Nearby Weather Stations

Station Location Temp. Windchill Dew Point Humidity Wind Precip. Elev Updated Type
                   

Watches & Warnings

There are currently no watches in effect.